Startpagina
METAR-TAF:

METAR-TAF

Vliegvelden :

Annecy, Frankrijk

breedte: 45-55-45N, lengte: 006-05-56E, hoogte: 463 m

Actueel weer

Dit bericht is 21 minuten geleden gemaakt, om 01:30 UTC
Wind 2 kt uit het westzuidwesten
Temperatuur -2°C
Vochtigheid 93%
Druk 1026 hPa
Zicht: 4100 m
nevel

METAR: LFLP 240130Z AUTO 24002KT 4100 BR NSC M02/M03 Q1026

Tijdstip: 02:51 (01:51 UTC)

Verwachting

Dit bericht is 11 uur en het 51 minuten geleden gemaakt, om 14:00 UTC
Verwachting geldig van 23 om 15 UTC tot 24 om 15 UTC
Wind 2 kt uit variabele richting
Zicht: 7000 m
Tijdelijke
van 23 om 22 UTC tot 24 om 08 UTC
Zicht: 3000 m
nevel

TAF: LFLP 231400Z 2315/2415 VRB02KT 7000 NSC TEMPO 2322/2408 3000 BR

Waarnemingen en weersverwachtingen van meer dan 4000 vliegvelden (METAR en TAF).

De beschikbare stations zijn de gele en rode punten op de kaart.

Ga met uw muis naar het station om de naam te zien.

Klik dan om waarnemingen en weersverwachtingen te zien.

kaart wijzigen: klik op de groene knoppen met een zwart kruis om in te zoomen, op de groene knop met een streepje om uit te zoomen of op de groene pijlen voor aangrenzende kaarten.


METAR-TAF: